Thursday, February 11, 2016
23:33 UTC
  |  Log In   |  Register Free
Airport Search:

Hampton Roads Executive Airport
(KPVG)

Hampton Roads Executive Airport Diagram
No Airport Diagram Available

FAA data valid effective Feb 4 2016 - Mar 31 2016 (unless otherwise noted).

 
 
 
 
 
 
 
 
 
 
 
 
 
 
Current Aviation Weather for KPVG

Weather Summary


The most recent METAR observation for PVG was updated at: 12:55 UTC
METAR for KPVG is not available. Closest METAR is for KCPK
KPVG  (most recent observation was updatred at 11:23 UTC)
112315Z 30004KT 10SM CLR M01/M16 A3023 RMK AO1

KCPK  (9.2 nm NW)   (most recent observation was updated at 11:23 UTC)
112315Z AUTO 00000KT 10SM CLR 01/M18 A3022 RMK AO2

KSFQ  (9.4 nm NE)   (most recent observation was updated at 11:23 UTC)
112315Z AUTO 29006KT 10SM CLR 00/M17 A3022 RMK AO2 T10051166

TAF for KPVG is not available.
KNGU  (12.2 nm SW)   (most recent observation was updatred at UTC)
1123/1223 33010KT 9999 SKC 521009 531909 532802 QNH3016INS FM120700 35008KT 9999 FEW150 SCT250 521009 531909 532802 QNH3030INS FM121200 36005KT 9999 BKN090 OVC140 650907 540809 551709 532604 QNH3012INS FM121830 16005KT 6000 -SN BR SCT012 BKN028 OVC060 650109 651007 540809 551709 532604 QNH2997INS TEMPO 1219/1223 3200 -SN BR BKN008 OVC025 TM05/1210Z T01/1219Z FN20000


KORF  (13.7 nm SW)   (most recent observation was updatred at 11:17 UTC)
111722Z 1118/1218 28013G23KT P6SM SKC FM112300 34006KT P6SM SKC FM121200 03005KT P6SM OVC100


KLFI  (18.7 nm SW)   (most recent observation was updatred at 11:19 UTC)
AMD 111905Z 1119/1224 28012G18KT 9999 SKC QNH3011INS TEMPO 1119/1121 30015G25KT BECMG 1122/1123 30009KT 9999 SKC QNH3024INS BECMG 1208/1209 VRB06KT 9999 SCT070 BKN130 QNH3007INS BECMG 1220/1221 VRB06KT 8000 -SHRA BKN010 610109 QNH2997INS TX01/1119Z TNM04/1202Z
GlobalAir.com is loading additional information.
 Current Weather at PVG
36.0 F° (2.0 C°)

Northwest winds at 5.8 mph
Pressure:
30.18 in
Humidity:
27%
Wind:
Northwest at 5.8 mph
Dew Point:
5.0 F° (-15.0 C°)
Visibility:
10.00 mi
PVG NOAA Radar




Find All Airport Services Find A Hotel Find A Rental Car Find A Golf Course Find A Restaurant $100 Hamburger



Airport Weather Forecast for KPVG

Translated METAR for KPVG (2315 UTC)
METAR:
KPVG 112315Z 30004KT 10SM CLR M01/M16 A3023 RMK AO1
Conditions at:
KPVG (Hampton Roads Executive, VA) observed 2315 UTC 11 February 2016
Temperature:
-1°C (30.2°F)
Dewpoint:
-16°C (3.2°F) [RH = 31.1]
Pressure:
30.23 inches Hg (1023.7 mb)
Winds:
from the WNW (300 degrees) at 4.6 mph (4 knots: 2.1 m/s)
Visibility:
10 mile(s)
Ceiling:
at least 12,000 feet AGL
Clouds:
Clear below 12,000 feet AGL
Remarks:
site is automated and does NOT have a precipitation sensor

Translated TAF for KNGU (Norfolk Ns (Chambers Fld), VA) ( UTC)
TAF text:
KNGU 1123/1223 33010KT 9999 SKC 521009 531909 532802 QNH3016INS
Forecast period:
Thursday Feb 11 2016 23:00 UTC - Friday Feb 12 2016 23:00 UTC
Forecast type:
FROM: standard forecast or significant change
Winds:
from the NNW (330 degrees) at 11.5 mph (10 knots: 5.1 m/s)
Visibility:
Ceiling:
at least 12,000 feet AGL
Clouds:
Clear Skies
Weather:
no significant weather observed at this time
TAF text:
FM120700 35008KT 9999 FEW150 SCT250 521009 531909 532802 QNH3030INS
Forecast period:
Friday Feb 12 2016 07:00 UTC - Friday Feb 12 2016 12:00 UTC
Forecast type:
FROM: standard forecast or significant change
Winds:
from the N (350 degrees) at 9.2 mph (8 knots: 4.1 m/s)
Visibility:
Ceiling:
at least 12,000 feet AGL
Clouds:
Few Clouds at 15,000 feet AGL
Scattered Clouds at 25,000 feet AGL
Weather:
no significant weather observed at this time
TAF text:
FM121200 36005KT 9999 BKN090 OVC140 650907 540809 551709 532604 QNH3012INS
Forecast period:
Friday Feb 12 2016 12:00 UTC - Friday Feb 12 2016 18:30 UTC
Forecast type:
FROM: standard forecast or significant change
Winds:
from the N (360 degrees) at 5.8 mph (5 knots: 2.6 m/s)
Visibility:
Ceiling:
9,000 feet AGL
Clouds:
Broken Cloud Cover at 9,000 feet AGL
Overcast Skies at 14,000 feet AGL
Weather:
no significant weather observed at this time
TAF text:
FM121830 16005KT 6000 -SN BR SCT012 BKN028 OVC060 650109 651007 540809 551709 532604 QNH2997INS
Forecast period:
Friday Feb 12 2016 18:30 UTC - Friday Feb 12 2016 23:00 UTC
Forecast type:
FROM: standard forecast or significant change
Winds:
from the SSE (160 degrees) at 5.8 mph (5 knots: 2.6 m/s)
Visibility:
Ceiling:
2,800 feet AGL
Clouds:
Scattered Clouds at 1,200 feet AGL
Broken Cloud Cover at 2,800 feet AGL
Overcast Skies at 6,000 feet AGL
Weather:
Light Snow
TAF text:
1219/1223 3200 -SN BR BKN008 OVC025 TM05/1210Z T01/1219Z FN20000
Forecast period:
Saturday Feb 13 2016 19:00 UTC - Saturday Feb 13 2016 23:00 UTC
Forecast type:
FROM: standard forecast or significant change
Winds:
Visibility:
Ceiling:
800 feet AGL
Clouds:
Broken Cloud Cover at 800 feet AGL
Overcast Skies at 2,500 feet AGL
Weather:
Light Snow
FBO's on the Field
FBO Company Facility Photos Services Transportation Aviation Fuel Prices: Prices include tax
Catering Weather Repair Courtesy Rental Type 100LL JetA JetA+ MOGAS 8087
 
Hampton Roads Executive Airport

Currently rated 5 by 1 person
FS:Shell
Last Updated: Feb-10
Login to update fuel prices
SS:
Contact Hampton Roads Executive AirportMore FBO Information
 
Add another FBO Facility Photos Catering Weather Repair Courtesy Rental Type 100LL JetA JetA+ MOGAS 8087
Services Transportation Aviation Fuel Prices: Prices include tax


model-print
model-print
model-print
model-print